sensor_id;sensor_type;location;lat;lon;timestamp;P1;durP1;ratioP1;P2;durP2;ratioP2
80705;SDS011;70229;48.010;7.852;2023-12-14T00:00:39;6.25;;;2.20;;
80705;SDS011;70229;48.010;7.852;2023-12-14T00:03:26;5.55;;;2.65;;
80705;SDS011;70229;48.010;7.852;2023-12-14T00:06:15;17.77;;;11.88;;
80705;SDS011;70229;48.010;7.852;2023-12-14T00:08:49;13.07;;;8.40;;
80705;SDS011;70229;48.010;7.852;2023-12-14T00:11:15;4.20;;;1.90;;
80705;SDS011;70229;48.010;7.852;2023-12-14T00:13:54;6.60;;;2.92;;
80705;SDS011;70229;48.010;7.852;2023-12-14T00:16:36;4.35;;;1.90;;
80705;SDS011;70229;48.010;7.852;2023-12-14T00:19:41;6.80;;;3.53;;
80705;SDS011;70229;48.010;7.852;2023-12-14T00:22:34;5.20;;;2.55;;
80705;SDS011;70229;48.010;7.852;2023-12-14T00:25:19;4.65;;;2.35;;
80705;SDS011;70229;48.010;7.852;2023-12-14T00:28:44;3.67;;;1.30;;
80705;SDS011;70229;48.010;7.852;2023-12-14T00:31:16;4.13;;;1.92;;
80705;SDS011;70229;48.010;7.852;2023-12-14T00:33:48;3.30;;;1.27;;
80705;SDS011;70229;48.010;7.852;2023-12-14T00:36:24;2.97;;;1.33;;
80705;SDS011;70229;48.010;7.852;2023-12-14T00:39:08;3.28;;;1.60;;
80705;SDS011;70229;48.010;7.852;2023-12-14T00:41:45;3.13;;;1.38;;
80705;SDS011;70229;48.010;7.852;2023-12-14T00:44:34;4.22;;;1.35;;
80705;SDS011;70229;48.010;7.852;2023-12-14T00:47:42;1.92;;;1.00;;
80705;SDS011;70229;48.010;7.852;2023-12-14T00:50:14;4.07;;;1.65;;
80705;SDS011;70229;48.010;7.852;2023-12-14T00:53:00;2.80;;;1.38;;
80705;SDS011;70229;48.010;7.852;2023-12-14T00:55:26;2.65;;;1.20;;
80705;SDS011;70229;48.010;7.852;2023-12-14T00:57:54;3.63;;;2.03;;
80705;SDS011;70229;48.010;7.852;2023-12-14T01:00:20;5.38;;;1.98;;
80705;SDS011;70229;48.010;7.852;2023-12-14T01:02:46;3.10;;;1.25;;
80705;SDS011;70229;48.010;7.852;2023-12-14T01:05:12;3.67;;;1.30;;
80705;SDS011;70229;48.010;7.852;2023-12-14T01:07:38;2.35;;;1.27;;
80705;SDS011;70229;48.010;7.852;2023-12-14T01:10:04;3.72;;;1.90;;
80705;SDS011;70229;48.010;7.852;2023-12-14T01:12:32;3.92;;;1.65;;
80705;SDS011;70229;48.010;7.852;2023-12-14T01:15:04;4.38;;;2.13;;
80705;SDS011;70229;48.010;7.852;2023-12-14T01:17:32;3.47;;;1.70;;
80705;SDS011;70229;48.010;7.852;2023-12-14T01:20:03;4.97;;;2.42;;
80705;SDS011;70229;48.010;7.852;2023-12-14T01:22:35;4.57;;;1.63;;
80705;SDS011;70229;48.010;7.852;2023-12-14T01:25:00;3.22;;;1.50;;
80705;SDS011;70229;48.010;7.852;2023-12-14T01:27:26;3.00;;;1.67;;
80705;SDS011;70229;48.010;7.852;2023-12-14T01:29:51;3.75;;;1.85;;
80705;SDS011;70229;48.010;7.852;2023-12-14T01:32:20;5.75;;;2.22;;
80705;SDS011;70229;48.010;7.852;2023-12-14T01:35:05;3.60;;;1.60;;
80705;SDS011;70229;48.010;7.852;2023-12-14T01:37:31;5.25;;;2.60;;
80705;SDS011;70229;48.010;7.852;2023-12-14T01:40:02;2.83;;;1.55;;
80705;SDS011;70229;48.010;7.852;2023-12-14T01:42:28;4.75;;;1.55;;
80705;SDS011;70229;48.010;7.852;2023-12-14T01:44:54;3.55;;;2.08;;
80705;SDS011;70229;48.010;7.852;2023-12-14T01:47:19;3.20;;;1.80;;
80705;SDS011;70229;48.010;7.852;2023-12-14T01:49:50;2.85;;;1.40;;
80705;SDS011;70229;48.010;7.852;2023-12-14T01:52:25;4.65;;;2.72;;
80705;SDS011;70229;48.010;7.852;2023-12-14T01:54:51;5.28;;;2.55;;
80705;SDS011;70229;48.010;7.852;2023-12-14T01:57:27;3.28;;;1.67;;
80705;SDS011;70229;48.010;7.852;2023-12-14T02:00:17;3.50;;;1.83;;
80705;SDS011;70229;48.010;7.852;2023-12-14T02:03:03;3.17;;;1.83;;
80705;SDS011;70229;48.010;7.852;2023-12-14T02:05:35;6.05;;;2.22;;
80705;SDS011;70229;48.010;7.852;2023-12-14T02:08:19;4.47;;;1.95;;
80705;SDS011;70229;48.010;7.852;2023-12-14T02:11:05;3.92;;;2.03;;
80705;SDS011;70229;48.010;7.852;2023-12-14T02:13:52;5.07;;;1.88;;
80705;SDS011;70229;48.010;7.852;2023-12-14T02:16:43;3.65;;;1.50;;
80705;SDS011;70229;48.010;7.852;2023-12-14T02:19:09;4.43;;;2.10;;
80705;SDS011;70229;48.010;7.852;2023-12-14T02:21:37;3.10;;;1.42;;
80705;SDS011;70229;48.010;7.852;2023-12-14T02:24:13;3.42;;;1.55;;
80705;SDS011;70229;48.010;7.852;2023-12-14T02:27:06;2.83;;;1.52;;
80705;SDS011;70229;48.010;7.852;2023-12-14T02:29:59;2.72;;;1.63;;
80705;SDS011;70229;48.010;7.852;2023-12-14T02:32:49;5.28;;;1.88;;
80705;SDS011;70229;48.010;7.852;2023-12-14T02:35:40;4.88;;;2.20;;
80705;SDS011;70229;48.010;7.852;2023-12-14T02:38:14;5.03;;;2.00;;
80705;SDS011;70229;48.010;7.852;2023-12-14T02:40:58;5.75;;;1.98;;
80705;SDS011;70229;48.010;7.852;2023-12-14T02:43:37;4.63;;;1.98;;
80705;SDS011;70229;48.010;7.852;2023-12-14T02:46:05;5.97;;;2.05;;
80705;SDS011;70229;48.010;7.852;2023-12-14T02:48:31;3.33;;;1.48;;
80705;SDS011;70229;48.010;7.852;2023-12-14T02:50:56;3.33;;;1.55;;
80705;SDS011;70229;48.010;7.852;2023-12-14T02:53:24;4.93;;;2.05;;
80705;SDS011;70229;48.010;7.852;2023-12-14T02:55:53;4.43;;;1.67;;
80705;SDS011;70229;48.010;7.852;2023-12-14T02:58:25;4.68;;;1.92;;
80705;SDS011;70229;48.010;7.852;2023-12-14T03:00:50;3.47;;;1.42;;
80705;SDS011;70229;48.010;7.852;2023-12-14T03:03:31;5.28;;;2.03;;
80705;SDS011;70229;48.010;7.852;2023-12-14T03:06:06;6.13;;;1.52;;
80705;SDS011;70229;48.010;7.852;2023-12-14T03:08:37;3.00;;;1.55;;
80705;SDS011;70229;48.010;7.852;2023-12-14T03:11:08;6.53;;;2.63;;
80705;SDS011;70229;48.010;7.852;2023-12-14T03:17:11;3.63;;;1.30;;
80705;SDS011;70229;48.010;7.852;2023-12-14T03:20:03;3.63;;;2.15;;
80705;SDS011;70229;48.010;7.852;2023-12-14T03:23:11;4.22;;;2.00;;
80705;SDS011;70229;48.010;7.852;2023-12-14T03:26:06;4.28;;;1.90;;
80705;SDS011;70229;48.010;7.852;2023-12-14T03:28:31;2.83;;;1.45;;
80705;SDS011;70229;48.010;7.852;2023-12-14T03:35:05;2.65;;;1.40;;
80705;SDS011;70229;48.010;7.852;2023-12-14T03:37:34;10.45;;;2.28;;
80705;SDS011;70229;48.010;7.852;2023-12-14T03:40:00;3.92;;;2.17;;
80705;SDS011;70229;48.010;7.852;2023-12-14T03:42:29;3.35;;;1.20;;
80705;SDS011;70229;48.010;7.852;2023-12-14T03:47:58;6.40;;;2.13;;
80705;SDS011;70229;48.010;7.852;2023-12-14T03:50:26;4.28;;;1.52;;
80705;SDS011;70229;48.010;7.852;2023-12-14T03:52:54;2.78;;;1.42;;
80705;SDS011;70229;48.010;7.852;2023-12-14T03:55:25;2.53;;;1.42;;
80705;SDS011;70229;48.010;7.852;2023-12-14T03:58:01;3.22;;;1.27;;
80705;SDS011;70229;48.010;7.852;2023-12-14T04:00:29;3.22;;;1.27;;
80705;SDS011;70229;48.010;7.852;2023-12-14T04:03:04;2.83;;;1.02;;
80705;SDS011;70229;48.010;7.852;2023-12-14T04:05:37;2.13;;;1.02;;
80705;SDS011;70229;48.010;7.852;2023-12-14T04:08:06;2.92;;;1.23;;
80705;SDS011;70229;48.010;7.852;2023-12-14T04:10:37;4.40;;;1.42;;
80705;SDS011;70229;48.010;7.852;2023-12-14T04:13:05;2.75;;;1.30;;
80705;SDS011;70229;48.010;7.852;2023-12-14T04:15:31;5.18;;;2.10;;
80705;SDS011;70229;48.010;7.852;2023-12-14T04:18:04;6.00;;;2.55;;
80705;SDS011;70229;48.010;7.852;2023-12-14T04:20:37;5.82;;;3.17;;
80705;SDS011;70229;48.010;7.852;2023-12-14T04:23:09;2.85;;;1.20;;
80705;SDS011;70229;48.010;7.852;2023-12-14T04:29:10;3.20;;;1.45;;
80705;SDS011;70229;48.010;7.852;2023-12-14T04:35:01;2.17;;;1.10;;
80705;SDS011;70229;48.010;7.852;2023-12-14T04:37:32;2.55;;;1.25;;
80705;SDS011;70229;48.010;7.852;2023-12-14T04:40:03;2.22;;;1.20;;
80705;SDS011;70229;48.010;7.852;2023-12-14T04:45:11;3.88;;;1.55;;
80705;SDS011;70229;48.010;7.852;2023-12-14T04:47:47;2.92;;;1.20;;
80705;SDS011;70229;48.010;7.852;2023-12-14T04:50:15;2.92;;;1.20;;
80705;SDS011;70229;48.010;7.852;2023-12-14T04:52:48;2.92;;;1.40;;
80705;SDS011;70229;48.010;7.852;2023-12-14T04:55:28;3.72;;;1.17;;
80705;SDS011;70229;48.010;7.852;2023-12-14T05:00:55;3.97;;;1.65;;
80705;SDS011;70229;48.010;7.852;2023-12-14T05:03:32;3.80;;;1.83;;
80705;SDS011;70229;48.010;7.852;2023-12-14T05:06:05;3.85;;;1.60;;
80705;SDS011;70229;48.010;7.852;2023-12-14T05:08:46;3.35;;;1.25;;
80705;SDS011;70229;48.010;7.852;2023-12-14T05:11:12;2.70;;;1.15;;
80705;SDS011;70229;48.010;7.852;2023-12-14T05:13:38;2.42;;;0.88;;
80705;SDS011;70229;48.010;7.852;2023-12-14T05:16:19;2.40;;;1.00;;
80705;SDS011;70229;48.010;7.852;2023-12-14T05:18:48;1.77;;;0.68;;
80705;SDS011;70229;48.010;7.852;2023-12-14T05:21:25;2.72;;;0.90;;
80705;SDS011;70229;48.010;7.852;2023-12-14T05:24:07;2.70;;;0.85;;
80705;SDS011;70229;48.010;7.852;2023-12-14T05:26:35;2.60;;;1.08;;
80705;SDS011;70229;48.010;7.852;2023-12-14T05:29:06;2.25;;;1.27;;
80705;SDS011;70229;48.010;7.852;2023-12-14T05:31:34;5.93;;;1.58;;
80705;SDS011;70229;48.010;7.852;2023-12-14T05:34:03;2.33;;;1.20;;
80705;SDS011;70229;48.010;7.852;2023-12-14T05:36:32;2.17;;;1.05;;
80705;SDS011;70229;48.010;7.852;2023-12-14T05:39:00;2.92;;;1.50;;
80705;SDS011;70229;48.010;7.852;2023-12-14T05:41:32;5.13;;;1.70;;
80705;SDS011;70229;48.010;7.852;2023-12-14T05:44:05;3.50;;;2.28;;
80705;SDS011;70229;48.010;7.852;2023-12-14T05:46:36;3.85;;;1.67;;
80705;SDS011;70229;48.010;7.852;2023-12-14T05:49:05;4.13;;;1.50;;
80705;SDS011;70229;48.010;7.852;2023-12-14T05:51:33;4.47;;;1.63;;
80705;SDS011;70229;48.010;7.852;2023-12-14T05:54:10;5.70;;;2.03;;
80705;SDS011;70229;48.010;7.852;2023-12-14T05:56:39;5.55;;;2.03;;
80705;SDS011;70229;48.010;7.852;2023-12-14T05:59:10;2.45;;;1.35;;
80705;SDS011;70229;48.010;7.852;2023-12-14T06:01:35;3.90;;;1.17;;
80705;SDS011;70229;48.010;7.852;2023-12-14T06:04:04;3.00;;;1.42;;
80705;SDS011;70229;48.010;7.852;2023-12-14T06:06:30;2.75;;;1.25;;
80705;SDS011;70229;48.010;7.852;2023-12-14T06:08:56;3.30;;;1.38;;
80705;SDS011;70229;48.010;7.852;2023-12-14T06:11:24;3.10;;;1.48;;
80705;SDS011;70229;48.010;7.852;2023-12-14T06:13:55;3.80;;;1.67;;
80705;SDS011;70229;48.010;7.852;2023-12-14T06:16:24;3.20;;;1.45;;
80705;SDS011;70229;48.010;7.852;2023-12-14T06:18:50;4.32;;;1.17;;
80705;SDS011;70229;48.010;7.852;2023-12-14T06:21:16;1.92;;;0.82;;
80705;SDS011;70229;48.010;7.852;2023-12-14T06:23:44;1.80;;;0.80;;
80705;SDS011;70229;48.010;7.852;2023-12-14T06:26:13;2.58;;;1.20;;
80705;SDS011;70229;48.010;7.852;2023-12-14T06:28:45;5.07;;;1.63;;
80705;SDS011;70229;48.010;7.852;2023-12-14T06:31:17;2.10;;;0.93;;
80705;SDS011;70229;48.010;7.852;2023-12-14T06:33:47;3.55;;;1.42;;
80705;SDS011;70229;48.010;7.852;2023-12-14T06:36:14;7.32;;;2.10;;
80705;SDS011;70229;48.010;7.852;2023-12-14T06:38:45;5.90;;;1.80;;
80705;SDS011;70229;48.010;7.852;2023-12-14T06:41:20;3.55;;;1.48;;
80705;SDS011;70229;48.010;7.852;2023-12-14T06:43:48;3.40;;;1.42;;
80705;SDS011;70229;48.010;7.852;2023-12-14T06:46:17;2.55;;;1.40;;
80705;SDS011;70229;48.010;7.852;2023-12-14T06:48:43;3.55;;;1.20;;
80705;SDS011;70229;48.010;7.852;2023-12-14T06:51:40;2.85;;;1.00;;
80705;SDS011;70229;48.010;7.852;2023-12-14T06:56:58;3.38;;;1.40;;
80705;SDS011;70229;48.010;7.852;2023-12-14T06:59:49;3.10;;;1.20;;
80705;SDS011;70229;48.010;7.852;2023-12-14T07:02:25;5.72;;;2.22;;
80705;SDS011;70229;48.010;7.852;2023-12-14T07:04:56;4.35;;;1.45;;
80705;SDS011;70229;48.010;7.852;2023-12-14T07:07:25;15.23;;;6.03;;
80705;SDS011;70229;48.010;7.852;2023-12-14T07:10:14;9.38;;;3.17;;
80705;SDS011;70229;48.010;7.852;2023-12-14T07:13:09;5.88;;;2.15;;
80705;SDS011;70229;48.010;7.852;2023-12-14T07:15:55;5.85;;;2.78;;
80705;SDS011;70229;48.010;7.852;2023-12-14T07:18:32;5.93;;;1.73;;
80705;SDS011;70229;48.010;7.852;2023-12-14T07:21:04;6.57;;;2.85;;
80705;SDS011;70229;48.010;7.852;2023-12-14T07:23:42;8.27;;;2.72;;
80705;SDS011;70229;48.010;7.852;2023-12-14T07:26:13;7.60;;;2.58;;
80705;SDS011;70229;48.010;7.852;2023-12-14T07:28:52;9.32;;;4.47;;
80705;SDS011;70229;48.010;7.852;2023-12-14T07:31:25;6.05;;;2.40;;
80705;SDS011;70229;48.010;7.852;2023-12-14T07:33:58;9.05;;;4.30;;
80705;SDS011;70229;48.010;7.852;2023-12-14T07:36:35;4.80;;;1.58;;
80705;SDS011;70229;48.010;7.852;2023-12-14T07:39:41;5.18;;;1.98;;
80705;SDS011;70229;48.010;7.852;2023-12-14T07:45:41;5.93;;;2.40;;
80705;SDS011;70229;48.010;7.852;2023-12-14T07:51:17;4.40;;;2.33;;
80705;SDS011;70229;48.010;7.852;2023-12-14T07:54:16;4.07;;;1.13;;
80705;SDS011;70229;48.010;7.852;2023-12-14T08:00:21;3.00;;;1.40;;
80705;SDS011;70229;48.010;7.852;2023-12-14T08:02:50;2.60;;;1.13;;
80705;SDS011;70229;48.010;7.852;2023-12-14T08:05:18;9.50;;;2.58;;
80705;SDS011;70229;48.010;7.852;2023-12-14T08:07:44;5.28;;;2.10;;
80705;SDS011;70229;48.010;7.852;2023-12-14T08:10:10;3.65;;;1.45;;
80705;SDS011;70229;48.010;7.852;2023-12-14T08:12:38;3.08;;;1.33;;
80705;SDS011;70229;48.010;7.852;2023-12-14T08:15:13;8.07;;;1.75;;
80705;SDS011;70229;48.010;7.852;2023-12-14T08:17:56;2.70;;;1.33;;
80705;SDS011;70229;48.010;7.852;2023-12-14T10:32:07;3.70;;;1.70;;
80705;SDS011;70229;48.010;7.852;2023-12-14T10:34:48;5.20;;;1.60;;
80705;SDS011;70229;48.010;7.852;2023-12-14T10:37:16;3.70;;;1.85;;
80705;SDS011;70229;48.010;7.852;2023-12-14T10:39:58;2.95;;;1.35;;
80705;SDS011;70229;48.010;7.852;2023-12-14T10:42:30;4.47;;;2.05;;
80705;SDS011;70229;48.010;7.852;2023-12-14T23:03:32;9.35;;;5.05;;
80705;SDS011;70229;48.010;7.852;2023-12-14T23:06:01;17.70;;;13.55;;
80705;SDS011;70229;48.010;7.852;2023-12-14T23:08:27;12.75;;;6.50;;
80705;SDS011;70229;48.010;7.852;2023-12-14T23:11:02;11.82;;;7.45;;
80705;SDS011;70229;48.010;7.852;2023-12-14T23:13:27;7.47;;;4.22;;
80705;SDS011;70229;48.010;7.852;2023-12-14T23:15:55;8.02;;;4.43;;
80705;SDS011;70229;48.010;7.852;2023-12-14T23:18:30;6.72;;;3.00;;
80705;SDS011;70229;48.010;7.852;2023-12-14T23:21:03;6.97;;;3.17;;
80705;SDS011;70229;48.010;7.852;2023-12-14T23:23:29;7.32;;;3.38;;
80705;SDS011;70229;48.010;7.852;2023-12-14T23:25:57;5.20;;;2.88;;
80705;SDS011;70229;48.010;7.852;2023-12-14T23:28:26;10.07;;;3.00;;
80705;SDS011;70229;48.010;7.852;2023-12-14T23:30:52;6.07;;;3.00;;
80705;SDS011;70229;48.010;7.852;2023-12-14T23:33:20;5.20;;;2.45;;
80705;SDS011;70229;48.010;7.852;2023-12-14T23:35:46;8.13;;;3.35;;
80705;SDS011;70229;48.010;7.852;2023-12-14T23:38:14;7.50;;;4.80;;
80705;SDS011;70229;48.010;7.852;2023-12-14T23:40:49;6.53;;;3.55;;
80705;SDS011;70229;48.010;7.852;2023-12-14T23:43:23;8.30;;;3.88;;
80705;SDS011;70229;48.010;7.852;2023-12-14T23:45:57;9.23;;;5.55;;
80705;SDS011;70229;48.010;7.852;2023-12-14T23:54:42;14.73;;;8.88;;
80705;SDS011;70229;48.010;7.852;2023-12-14T23:57:23;12.23;;;5.68;;
